METAR Data
IDs: Format: Raw Decoded Include TAF

Data at: 1543 UTC 18 Aug 2019

PAOM 181453Z AUTO 00000KT 10SM CLR 07/06 A3048 RMK AO2 SLP323 T00670056 58014 TSNO
PAOM 181353Z AUTO 01004KT 10SM CLR 08/07 A3050 RMK AO2 SLP328 T00780067 TSNO
PAOM 181253Z AUTO 00000KT 10SM CLR 08/07 A3051 RMK AO2 SLP333 T00830072 TSNO
PAOM 181153Z AUTO 01003KT 10SM CLR 08/07 A3052 RMK AO2 SLP336 T00830072 10122 20078 58006 TSNO
PAOM 181053Z AUTO 02003KT 10SM CLR 08/06 A3053 RMK AO2 SLP339 T00780061 TSNO
PAOM 180953Z AUTO 00000KT 10SM CLR 09/07 A3054 RMK AO2 SLP342 T00890067 TSNO
PAOM 180853Z AUTO 00000KT 10SM CLR 10/09 A3054 RMK AO2 SLP343 T01000094 401440039 58006 TSNO
PAOM 180753Z AUTO 00000KT 10SM CLR 11/09 A3055 RMK AO2 SLP345 T01060094 TSNO
PAOM 180653Z AUTO 00000KT 10SM OVC150 12/11 A3056 RMK AO2 SLP348 T01170106 TSNO
PAOM 180553Z 00000KT 10SM OVC150 12/11 A3056 RMK AO2 SLP349 T01220106 10144 20122 56009
PAOM 180453Z 22003KT 10SM BKN150 12/11 A3056 RMK AO2 SLP350 T01220106
PAOM 180353Z 25005KT 10SM CLR 13/10 A3058 RMK AO2 SLP355 T01330100
PAOM 180253Z 26011KT 10SM CLR 13/09 A3059 RMK AO2 SLP358 T01330094 57007
PAOM 180153Z 27013KT 10SM CLR 13/08 A3060 RMK AO2 SLP362 T01330083
PAOM 180053Z 26011KT 10SM CLR 14/07 A3060 RMK AO2 SLP361 T01440067
PAOM 172353Z 25009KT 10SM SCT240 14/07 A3061 RMK AO2 SLP365 T01440072 10144 20083 58007
PAOM 172253Z 26011KT 10SM SCT250 14/08 A3063 RMK AO2 SLP372 T01390083
PAOM 172153Z 24007KT 10SM SCT250 13/07 A3063 RMK AO2 SLP370 T01280067
PAOM 172053Z 23005KT 10SM CLR 13/07 A3063 RMK AO2 SLP372 T01280067 50001
PAOM 171953Z 31003KT 10SM CLR 13/07 A3064 RMK AO2 SLP374 T01280067
PAOM 171853Z 26003KT 10SM CLR 10/07 A3063 RMK AO2 SLP373 T01000072
PAOM 171753Z 31003KT 10SM CLR 08/06 A3063 RMK AO2 SLP371 T00830061 10089 20039 52003
PAOM 171653Z 32005KT 10SM CLR 07/05 A3062 RMK AO2 SLP370 T00720050
PAOM 171553Z 00000KT 10SM CLR 06/04 A3062 RMK AO2 SLP368 T00560044
PAOM 171453Z AUTO 00000KT 10SM CLR 04/04 A3062 RMK AO2 SLP367 T00440039 50005 TSNO
PAOM 171353Z AUTO 32006KT 10SM CLR 06/04 A3062 RMK AO2 SLP368 T00560039 TSNO
PAOM 171253Z AUTO 26004KT 10SM CLR 06/04 A3060 RMK AO2 SLP363 T00560039 TSNO
PAOM 171153Z AUTO 01005KT 10SM CLR 07/04 A3060 RMK AO2 SLP362 T00670044 10111 20056 51017 TSNO
PAOM 171053Z AUTO 03004KT 10SM CLR 07/05 A3059 RMK AO2 SLP359 T00720050 TSNO
PAOM 170953Z AUTO 02003KT 10SM CLR 06/04 A3057 RMK AO2 SLP353 T00610044 TSNO
PAOM 170853Z AUTO 34005KT 10SM CLR 08/06 A3055 RMK AO2 SLP346 T00780056 401440067 51015 TSNO
PAOM 170753Z AUTO VRB03KT 10SM CLR 08/06 A3054 RMK AO2 SLP343 T00780056 TSNO
PAOM 170653Z AUTO 01006KT 10SM CLR 09/06 A3052 RMK AO2 SLP336 T00940061 TSNO
PAOM 170553Z 06005KT 10SM CLR 11/07 A3051 RMK AO2 SLP331 T01110072 10144 20111 53020
PAOM 170453Z 11008KT 10SM SCT036 12/08 A3049 RMK AO2 SLP323 T01220083
PAOM 170353Z 06011KT 10SM CLR 13/08 A3046 RMK AO2 WSHFT 0334 SLP313 T01330078